sensor_id;sensor_type;location;lat;lon;timestamp;P1;durP1;ratioP1;P2;durP2;ratioP2
40252;SDS011;25972;51.854;4.534;2023-02-21T00:02:40;31.08;;;11.07;;
40252;SDS011;25972;51.854;4.534;2023-02-21T00:05:24;28.80;;;9.20;;
40252;SDS011;25972;51.854;4.534;2023-02-21T00:08:09;28.15;;;8.63;;
40252;SDS011;25972;51.854;4.534;2023-02-21T00:10:53;16.88;;;6.35;;
40252;SDS011;25972;51.854;4.534;2023-02-21T00:13:37;32.47;;;11.13;;
40252;SDS011;25972;51.854;4.534;2023-02-21T00:16:25;40.13;;;10.27;;
40252;SDS011;25972;51.854;4.534;2023-02-21T00:19:33;18.98;;;6.53;;
40252;SDS011;25972;51.854;4.534;2023-02-21T00:22:17;37.67;;;10.68;;
40252;SDS011;25972;51.854;4.534;2023-02-21T00:25:02;35.95;;;11.23;;
40252;SDS011;25972;51.854;4.534;2023-02-21T00:27:47;19.25;;;6.88;;
40252;SDS011;25972;51.854;4.534;2023-02-21T00:30:31;28.30;;;10.75;;
40252;SDS011;25972;51.854;4.534;2023-02-21T00:33:16;24.42;;;8.40;;
40252;SDS011;25972;51.854;4.534;2023-02-21T00:36:00;35.75;;;11.63;;
40252;SDS011;25972;51.854;4.534;2023-02-21T00:38:45;32.15;;;10.75;;
40252;SDS011;25972;51.854;4.534;2023-02-21T00:41:29;32.85;;;11.30;;
40252;SDS011;25972;51.854;4.534;2023-02-21T00:44:14;41.08;;;11.75;;
40252;SDS011;25972;51.854;4.534;2023-02-21T00:46:58;39.35;;;13.10;;
40252;SDS011;25972;51.854;4.534;2023-02-21T00:49:42;28.92;;;10.70;;
40252;SDS011;25972;51.854;4.534;2023-02-21T00:52:29;30.40;;;10.65;;
40252;SDS011;25972;51.854;4.534;2023-02-21T00:55:13;12.48;;;5.15;;
40252;SDS011;25972;51.854;4.534;2023-02-21T00:57:58;22.05;;;9.35;;
40252;SDS011;25972;51.854;4.534;2023-02-21T01:00:43;39.13;;;13.20;;
40252;SDS011;25972;51.854;4.534;2023-02-21T01:03:27;30.25;;;11.80;;
40252;SDS011;25972;51.854;4.534;2023-02-21T01:06:16;38.40;;;13.55;;
40252;SDS011;25972;51.854;4.534;2023-02-21T01:09:01;41.38;;;13.73;;
40252;SDS011;25972;51.854;4.534;2023-02-21T01:11:45;35.72;;;12.82;;
40252;SDS011;25972;51.854;4.534;2023-02-21T01:14:30;28.35;;;11.27;;
40252;SDS011;25972;51.854;4.534;2023-02-21T01:17:15;36.33;;;12.20;;
40252;SDS011;25972;51.854;4.534;2023-02-21T01:20:00;33.70;;;10.82;;
40252;SDS011;25972;51.854;4.534;2023-02-21T01:22:45;31.23;;;11.00;;
40252;SDS011;25972;51.854;4.534;2023-02-21T01:25:30;13.32;;;4.50;;
40252;SDS011;25972;51.854;4.534;2023-02-21T01:28:14;16.65;;;6.85;;
40252;SDS011;25972;51.854;4.534;2023-02-21T01:31:01;33.92;;;12.55;;
40252;SDS011;25972;51.854;4.534;2023-02-21T01:33:46;35.38;;;13.13;;
40252;SDS011;25972;51.854;4.534;2023-02-21T01:36:30;30.92;;;10.05;;
40252;SDS011;25972;51.854;4.534;2023-02-21T01:39:15;32.67;;;12.75;;
40252;SDS011;25972;51.854;4.534;2023-02-21T01:41:59;25.13;;;8.18;;
40252;SDS011;25972;51.854;4.534;2023-02-21T01:44:46;29.35;;;12.45;;
40252;SDS011;25972;51.854;4.534;2023-02-21T01:47:31;25.17;;;9.73;;
40252;SDS011;25972;51.854;4.534;2023-02-21T01:53:08;29.20;;;12.32;;
40252;SDS011;25972;51.854;4.534;2023-02-21T01:55:59;46.28;;;15.77;;
40252;SDS011;25972;51.854;4.534;2023-02-21T01:58:47;46.58;;;16.77;;
40252;SDS011;25972;51.854;4.534;2023-02-21T02:01:50;32.35;;;14.10;;
40252;SDS011;25972;51.854;4.534;2023-02-21T02:04:38;34.40;;;12.32;;
40252;SDS011;25972;51.854;4.534;2023-02-21T02:07:23;20.45;;;8.57;;
40252;SDS011;25972;51.854;4.534;2023-02-21T02:10:09;43.42;;;15.02;;
40252;SDS011;25972;51.854;4.534;2023-02-21T02:13:01;39.78;;;16.00;;
40252;SDS011;25972;51.854;4.534;2023-02-21T02:45:46;40.45;;;15.57;;
40252;SDS011;25972;51.854;4.534;2023-02-21T02:48:20;41.47;;;16.00;;
40252;SDS011;25972;51.854;4.534;2023-02-21T02:50:53;42.55;;;16.90;;
40252;SDS011;25972;51.854;4.534;2023-02-21T02:53:21;34.05;;;13.63;;
40252;SDS011;25972;51.854;4.534;2023-02-21T02:55:57;37.25;;;13.52;;
40252;SDS011;25972;51.854;4.534;2023-02-21T02:58:25;16.50;;;7.05;;
40252;SDS011;25972;51.854;4.534;2023-02-21T03:01:02;37.93;;;13.03;;
40252;SDS011;25972;51.854;4.534;2023-02-21T03:03:57;18.65;;;7.07;;
40252;SDS011;25972;51.854;4.534;2023-02-21T03:09:48;27.98;;;12.25;;
40252;SDS011;25972;51.854;4.534;2023-02-21T03:12:32;32.33;;;13.20;;
40252;SDS011;25972;51.854;4.534;2023-02-21T03:15:31;44.10;;;15.38;;
40252;SDS011;25972;51.854;4.534;2023-02-21T03:20:56;38.97;;;14.52;;
40252;SDS011;25972;51.854;4.534;2023-02-21T03:23:27;34.58;;;12.07;;
40252;SDS011;25972;51.854;4.534;2023-02-21T03:25:56;50.17;;;18.70;;
40252;SDS011;25972;51.854;4.534;2023-02-21T03:28:25;49.92;;;18.20;;
40252;SDS011;25972;51.854;4.534;2023-02-21T03:30:52;42.08;;;15.95;;
40252;SDS011;25972;51.854;4.534;2023-02-21T03:33:21;35.75;;;13.73;;
40252;SDS011;25972;51.854;4.534;2023-02-21T03:35:48;40.10;;;15.05;;
40252;SDS011;25972;51.854;4.534;2023-02-21T03:38:14;36.35;;;13.48;;
40252;SDS011;25972;51.854;4.534;2023-02-21T03:40:40;29.25;;;12.13;;
40252;SDS011;25972;51.854;4.534;2023-02-21T03:43:06;48.42;;;16.88;;
40252;SDS011;25972;51.854;4.534;2023-02-21T03:45:38;48.70;;;17.75;;
40252;SDS011;25972;51.854;4.534;2023-02-21T03:48:11;34.90;;;14.55;;
40252;SDS011;25972;51.854;4.534;2023-02-21T03:50:39;48.53;;;17.60;;
40252;SDS011;25972;51.854;4.534;2023-02-21T03:53:05;25.45;;;9.77;;
40252;SDS011;25972;51.854;4.534;2023-02-21T03:55:31;40.33;;;15.95;;
40252;SDS011;25972;51.854;4.534;2023-02-21T03:58:00;16.30;;;6.85;;
40252;SDS011;25972;51.854;4.534;2023-02-21T04:00:28;44.15;;;17.08;;
40252;SDS011;25972;51.854;4.534;2023-02-21T04:02:54;43.42;;;16.15;;
40252;SDS011;25972;51.854;4.534;2023-02-21T04:05:43;44.67;;;16.25;;
40252;SDS011;25972;51.854;4.534;2023-02-21T04:08:09;54.58;;;16.98;;
40252;SDS011;25972;51.854;4.534;2023-02-21T04:10:36;50.67;;;17.63;;
40252;SDS011;25972;51.854;4.534;2023-02-21T04:13:03;40.58;;;15.48;;
40252;SDS011;25972;51.854;4.534;2023-02-21T04:15:37;51.75;;;17.30;;
40252;SDS011;25972;51.854;4.534;2023-02-21T04:18:03;48.08;;;18.85;;
40252;SDS011;25972;51.854;4.534;2023-02-21T04:20:29;21.23;;;6.70;;
40252;SDS011;25972;51.854;4.534;2023-02-21T04:22:57;26.98;;;10.75;;
40252;SDS011;25972;51.854;4.534;2023-02-21T04:25:24;32.47;;;13.65;;
40252;SDS011;25972;51.854;4.534;2023-02-21T04:27:56;45.05;;;17.23;;
40252;SDS011;25972;51.854;4.534;2023-02-21T04:30:21;40.40;;;15.65;;
40252;SDS011;25972;51.854;4.534;2023-02-21T04:32:48;49.80;;;17.85;;
40252;SDS011;25972;51.854;4.534;2023-02-21T04:35:14;50.60;;;17.23;;
40252;SDS011;25972;51.854;4.534;2023-02-21T04:37:42;42.70;;;16.67;;
40252;SDS011;25972;51.854;4.534;2023-02-21T04:40:10;49.00;;;18.30;;
40252;SDS011;25972;51.854;4.534;2023-02-21T04:42:36;49.92;;;18.70;;
40252;SDS011;25972;51.854;4.534;2023-02-21T04:45:02;46.47;;;16.45;;
40252;SDS011;25972;51.854;4.534;2023-02-21T04:47:28;34.60;;;12.55;;
40252;SDS011;25972;51.854;4.534;2023-02-21T04:49:53;50.58;;;16.67;;
40252;SDS011;25972;51.854;4.534;2023-02-21T04:52:19;46.45;;;18.35;;
40252;SDS011;25972;51.854;4.534;2023-02-21T04:54:46;43.30;;;17.70;;
40252;SDS011;25972;51.854;4.534;2023-02-21T04:57:12;43.22;;;14.57;;
40252;SDS011;25972;51.854;4.534;2023-02-21T04:59:39;42.53;;;19.08;;
40252;SDS011;25972;51.854;4.534;2023-02-21T05:02:05;54.05;;;19.70;;
40252;SDS011;25972;51.854;4.534;2023-02-21T05:04:33;47.65;;;17.60;;
40252;SDS011;25972;51.854;4.534;2023-02-21T05:06:59;48.67;;;19.33;;
40252;SDS011;25972;51.854;4.534;2023-02-21T05:09:25;48.63;;;19.13;;
40252;SDS011;25972;51.854;4.534;2023-02-21T05:11:51;43.60;;;16.77;;
40252;SDS011;25972;51.854;4.534;2023-02-21T05:14:17;42.47;;;16.48;;
40252;SDS011;25972;51.854;4.534;2023-02-21T05:16:43;47.85;;;18.02;;
40252;SDS011;25972;51.854;4.534;2023-02-21T05:19:09;44.90;;;18.17;;
40252;SDS011;25972;51.854;4.534;2023-02-21T05:21:35;50.28;;;20.60;;
40252;SDS011;25972;51.854;4.534;2023-02-21T05:24:03;23.45;;;8.73;;
40252;SDS011;25972;51.854;4.534;2023-02-21T05:26:32;45.00;;;17.45;;
40252;SDS011;25972;51.854;4.534;2023-02-21T05:28:59;36.60;;;15.13;;
40252;SDS011;25972;51.854;4.534;2023-02-21T05:31:25;44.42;;;14.90;;
40252;SDS011;25972;51.854;4.534;2023-02-21T05:33:51;42.83;;;18.25;;
40252;SDS011;25972;51.854;4.534;2023-02-21T05:36:17;52.33;;;19.25;;
40252;SDS011;25972;51.854;4.534;2023-02-21T05:38:48;49.85;;;18.83;;
40252;SDS011;25972;51.854;4.534;2023-02-21T05:41:16;50.83;;;19.10;;
40252;SDS011;25972;51.854;4.534;2023-02-21T05:43:43;49.63;;;18.20;;
40252;SDS011;25972;51.854;4.534;2023-02-21T05:48:49;46.25;;;17.65;;
40252;SDS011;25972;51.854;4.534;2023-02-21T05:51:15;32.33;;;13.85;;
40252;SDS011;25972;51.854;4.534;2023-02-21T05:53:41;32.42;;;12.40;;
40252;SDS011;25972;51.854;4.534;2023-02-21T05:56:07;42.40;;;16.48;;
40252;SDS011;25972;51.854;4.534;2023-02-21T05:58:33;42.60;;;15.73;;
40252;SDS011;25972;51.854;4.534;2023-02-21T06:00:59;33.70;;;14.00;;
40252;SDS011;25972;51.854;4.534;2023-02-21T06:03:25;39.33;;;14.27;;
40252;SDS011;25972;51.854;4.534;2023-02-21T06:05:53;36.75;;;14.00;;
40252;SDS011;25972;51.854;4.534;2023-02-21T06:08:19;38.85;;;14.23;;
40252;SDS011;25972;51.854;4.534;2023-02-21T06:10:45;44.30;;;17.83;;
40252;SDS011;25972;51.854;4.534;2023-02-21T06:13:11;41.67;;;16.50;;
40252;SDS011;25972;51.854;4.534;2023-02-21T06:15:37;45.72;;;16.38;;
40252;SDS011;25972;51.854;4.534;2023-02-21T06:18:03;53.90;;;16.70;;
40252;SDS011;25972;51.854;4.534;2023-02-21T06:20:28;43.22;;;14.43;;
40252;SDS011;25972;51.854;4.534;2023-02-21T06:22:54;54.75;;;20.25;;
40252;SDS011;25972;51.854;4.534;2023-02-21T06:25:20;50.05;;;19.30;;
40252;SDS011;25972;51.854;4.534;2023-02-21T06:27:46;56.03;;;18.95;;
40252;SDS011;25972;51.854;4.534;2023-02-21T06:30:12;50.67;;;19.10;;
40252;SDS011;25972;51.854;4.534;2023-02-21T06:32:38;43.97;;;16.83;;
40252;SDS011;25972;51.854;4.534;2023-02-21T06:35:04;51.25;;;19.33;;
40252;SDS011;25972;51.854;4.534;2023-02-21T06:41:27;59.97;;;20.15;;
40252;SDS011;25972;51.854;4.534;2023-02-21T06:43:54;42.10;;;14.90;;
40252;SDS011;25972;51.854;4.534;2023-02-21T06:46:23;53.15;;;18.85;;
40252;SDS011;25972;51.854;4.534;2023-02-21T06:48:51;60.95;;;21.48;;
40252;SDS011;25972;51.854;4.534;2023-02-21T06:51:17;61.05;;;21.27;;
40252;SDS011;25972;51.854;4.534;2023-02-21T06:53:44;65.53;;;21.65;;
40252;SDS011;25972;51.854;4.534;2023-02-21T06:56:13;40.05;;;14.25;;
40252;SDS011;25972;51.854;4.534;2023-02-21T06:58:39;63.22;;;20.85;;
40252;SDS011;25972;51.854;4.534;2023-02-21T07:01:05;59.85;;;20.13;;
40252;SDS011;25972;51.854;4.534;2023-02-21T07:03:30;49.50;;;18.77;;
40252;SDS011;25972;51.854;4.534;2023-02-21T07:05:56;50.03;;;20.48;;
40252;SDS011;25972;51.854;4.534;2023-02-21T07:08:22;59.25;;;20.27;;
40252;SDS011;25972;51.854;4.534;2023-02-21T07:10:50;55.55;;;18.92;;
40252;SDS011;25972;51.854;4.534;2023-02-21T07:13:16;57.30;;;20.83;;
40252;SDS011;25972;51.854;4.534;2023-02-21T07:15:41;49.22;;;18.30;;
40252;SDS011;25972;51.854;4.534;2023-02-21T07:18:07;58.47;;;18.38;;
40252;SDS011;25972;51.854;4.534;2023-02-21T07:20:33;45.15;;;14.57;;
40252;SDS011;25972;51.854;4.534;2023-02-21T07:22:59;31.83;;;12.10;;
40252;SDS011;25972;51.854;4.534;2023-02-21T07:25:25;62.28;;;19.73;;
40252;SDS011;25972;51.854;4.534;2023-02-21T07:27:52;57.33;;;18.58;;
40252;SDS011;25972;51.854;4.534;2023-02-21T07:30:18;48.53;;;18.65;;
40252;SDS011;25972;51.854;4.534;2023-02-21T07:32:44;51.88;;;18.20;;
40252;SDS011;25972;51.854;4.534;2023-02-21T07:35:10;53.25;;;17.33;;
40252;SDS011;25972;51.854;4.534;2023-02-21T07:37:37;37.03;;;12.15;;
40252;SDS011;25972;51.854;4.534;2023-02-21T07:40:03;55.40;;;17.70;;
40252;SDS011;25972;51.854;4.534;2023-02-21T07:42:31;56.28;;;19.23;;
40252;SDS011;25972;51.854;4.534;2023-02-21T07:44:57;59.45;;;19.27;;
40252;SDS011;25972;51.854;4.534;2023-02-21T07:47:24;54.13;;;15.57;;
40252;SDS011;25972;51.854;4.534;2023-02-21T07:49:51;48.63;;;18.42;;
40252;SDS011;25972;51.854;4.534;2023-02-21T07:52:18;24.27;;;8.88;;
40252;SDS011;25972;51.854;4.534;2023-02-21T07:54:45;52.13;;;16.67;;
40252;SDS011;25972;51.854;4.534;2023-02-21T07:57:11;45.13;;;14.90;;
40252;SDS011;25972;51.854;4.534;2023-02-21T07:59:37;48.00;;;15.07;;
40252;SDS011;25972;51.854;4.534;2023-02-21T08:02:03;62.03;;;20.60;;
40252;SDS011;25972;51.854;4.534;2023-02-21T08:04:29;46.65;;;16.60;;
40252;SDS011;25972;51.854;4.534;2023-02-21T08:06:59;44.83;;;15.25;;
40252;SDS011;25972;51.854;4.534;2023-02-21T08:09:25;41.40;;;13.73;;
40252;SDS011;25972;51.854;4.534;2023-02-21T08:11:51;39.08;;;11.60;;
40252;SDS011;25972;51.854;4.534;2023-02-21T08:14:17;28.42;;;9.98;;
40252;SDS011;25972;51.854;4.534;2023-02-21T08:16:42;56.80;;;18.95;;
40252;SDS011;25972;51.854;4.534;2023-02-21T08:19:08;58.25;;;20.25;;
40252;SDS011;25972;51.854;4.534;2023-02-21T08:21:34;59.95;;;17.23;;
40252;SDS011;25972;51.854;4.534;2023-02-21T08:24:00;55.50;;;18.63;;
40252;SDS011;25972;51.854;4.534;2023-02-21T08:26:26;58.15;;;19.08;;
40252;SDS011;25972;51.854;4.534;2023-02-21T08:28:52;41.55;;;13.18;;
40252;SDS011;25972;51.854;4.534;2023-02-21T08:31:18;47.35;;;17.77;;
40252;SDS011;25972;51.854;4.534;2023-02-21T08:33:44;50.08;;;15.57;;
40252;SDS011;25972;51.854;4.534;2023-02-21T08:36:10;47.60;;;15.02;;
40252;SDS011;25972;51.854;4.534;2023-02-21T08:38:36;62.53;;;20.58;;
40252;SDS011;25972;51.854;4.534;2023-02-21T08:41:03;66.05;;;20.67;;
40252;SDS011;25972;51.854;4.534;2023-02-21T08:43:30;53.03;;;15.70;;
40252;SDS011;25972;51.854;4.534;2023-02-21T08:45:57;59.40;;;19.20;;
40252;SDS011;25972;51.854;4.534;2023-02-21T08:48:22;59.55;;;18.23;;
40252;SDS011;25972;51.854;4.534;2023-02-21T08:50:48;45.05;;;14.25;;
40252;SDS011;25972;51.854;4.534;2023-02-21T08:53:16;55.17;;;18.77;;
40252;SDS011;25972;51.854;4.534;2023-02-21T08:55:42;61.83;;;19.88;;
40252;SDS011;25972;51.854;4.534;2023-02-21T08:58:08;39.67;;;13.50;;
40252;SDS011;25972;51.854;4.534;2023-02-21T09:00:37;60.45;;;19.08;;
40252;SDS011;25972;51.854;4.534;2023-02-21T09:03:03;67.90;;;20.85;;
40252;SDS011;25972;51.854;4.534;2023-02-21T09:05:29;61.92;;;18.20;;
40252;SDS011;25972;51.854;4.534;2023-02-21T09:07:57;71.75;;;20.05;;
40252;SDS011;25972;51.854;4.534;2023-02-21T09:10:26;28.23;;;9.98;;
40252;SDS011;25972;51.854;4.534;2023-02-21T09:12:53;67.05;;;21.02;;
40252;SDS011;25972;51.854;4.534;2023-02-21T09:15:19;50.35;;;16.33;;
40252;SDS011;25972;51.854;4.534;2023-02-21T09:17:46;64.40;;;19.38;;
40252;SDS011;25972;51.854;4.534;2023-02-21T09:20:15;66.05;;;20.05;;
40252;SDS011;25972;51.854;4.534;2023-02-21T09:22:45;72.43;;;22.45;;
40252;SDS011;25972;51.854;4.534;2023-02-21T09:25:11;72.18;;;23.10;;
40252;SDS011;25972;51.854;4.534;2023-02-21T09:27:41;70.20;;;21.00;;
40252;SDS011;25972;51.854;4.534;2023-02-21T09:30:08;44.83;;;15.18;;
40252;SDS011;25972;51.854;4.534;2023-02-21T09:32:39;84.13;;;23.73;;
40252;SDS011;25972;51.854;4.534;2023-02-21T09:35:06;78.15;;;23.38;;
40252;SDS011;25972;51.854;4.534;2023-02-21T09:37:35;54.47;;;16.83;;
40252;SDS011;25972;51.854;4.534;2023-02-21T09:40:02;56.28;;;16.58;;
40252;SDS011;25972;51.854;4.534;2023-02-21T09:42:32;48.33;;;14.27;;
40252;SDS011;25972;51.854;4.534;2023-02-21T09:45:00;58.30;;;18.02;;
40252;SDS011;25972;51.854;4.534;2023-02-21T09:47:27;79.50;;;22.38;;
40252;SDS011;25972;51.854;4.534;2023-02-21T09:50:06;65.15;;;20.05;;
40252;SDS011;25972;51.854;4.534;2023-02-21T09:52:39;67.20;;;20.85;;
40252;SDS011;25972;51.854;4.534;2023-02-21T09:55:10;67.95;;;20.80;;
40252;SDS011;25972;51.854;4.534;2023-02-21T09:57:43;85.05;;;24.50;;
40252;SDS011;25972;51.854;4.534;2023-02-21T10:00:15;54.80;;;20.52;;
40252;SDS011;25972;51.854;4.534;2023-02-21T10:11:13;38.72;;;12.35;;
40252;SDS011;25972;51.854;4.534;2023-02-21T10:13:47;67.70;;;21.65;;
40252;SDS011;25972;51.854;4.534;2023-02-21T10:16:25;69.30;;;22.40;;
40252;SDS011;25972;51.854;4.534;2023-02-21T10:19:05;72.85;;;23.58;;
40252;SDS011;25972;51.854;4.534;2023-02-21T10:21:51;58.47;;;18.85;;
40252;SDS011;25972;51.854;4.534;2023-02-21T10:24:21;49.38;;;17.88;;
40252;SDS011;25972;51.854;4.534;2023-02-21T10:27:04;59.25;;;19.17;;
40252;SDS011;25972;51.854;4.534;2023-02-21T10:29:37;48.17;;;16.27;;
40252;SDS011;25972;51.854;4.534;2023-02-21T10:32:03;32.97;;;12.00;;
40252;SDS011;25972;51.854;4.534;2023-02-21T10:34:31;45.45;;;14.65;;
40252;SDS011;25972;51.854;4.534;2023-02-21T10:37:03;59.85;;;23.52;;
40252;SDS011;25972;51.854;4.534;2023-02-21T10:39:55;48.28;;;16.13;;
40252;SDS011;25972;51.854;4.534;2023-02-21T10:42:37;47.75;;;15.02;;
40252;SDS011;25972;51.854;4.534;2023-02-21T10:45:07;14.65;;;5.05;;
40252;SDS011;25972;51.854;4.534;2023-02-21T10:50:38;35.28;;;12.85;;
40252;SDS011;25972;51.854;4.534;2023-02-21T10:53:29;35.65;;;13.35;;
40252;SDS011;25972;51.854;4.534;2023-02-21T10:58:47;35.63;;;12.77;;
40252;SDS011;25972;51.854;4.534;2023-02-21T11:01:18;33.10;;;11.85;;
40252;SDS011;25972;51.854;4.534;2023-02-21T11:03:51;31.77;;;10.95;;
40252;SDS011;25972;51.854;4.534;2023-02-21T11:08:55;16.75;;;6.30;;
40252;SDS011;25972;51.854;4.534;2023-02-21T11:11:38;17.20;;;6.60;;
40252;SDS011;25972;51.854;4.534;2023-02-21T11:14:23;31.50;;;11.05;;
40252;SDS011;25972;51.854;4.534;2023-02-21T11:17:08;23.15;;;9.00;;
40252;SDS011;25972;51.854;4.534;2023-02-21T11:27:44;16.42;;;6.45;;
40252;SDS011;25972;51.854;4.534;2023-02-21T11:31:03;19.42;;;7.53;;
40252;SDS011;25972;51.854;4.534;2023-02-21T11:34:15;21.45;;;7.57;;
40252;SDS011;25972;51.854;4.534;2023-02-21T11:36:40;22.92;;;8.50;;
40252;SDS011;25972;51.854;4.534;2023-02-21T11:41:45;16.20;;;6.75;;
40252;SDS011;25972;51.854;4.534;2023-02-21T11:52:45;19.52;;;6.93;;
40252;SDS011;25972;51.854;4.534;2023-02-21T11:55:21;20.23;;;8.23;;
40252;SDS011;25972;51.854;4.534;2023-02-21T12:00:48;23.77;;;8.13;;
40252;SDS011;25972;51.854;4.534;2023-02-21T12:08:50;18.23;;;7.82;;
40252;SDS011;25972;51.854;4.534;2023-02-21T12:11:33;22.40;;;6.95;;
40252;SDS011;25972;51.854;4.534;2023-02-21T12:16:54;21.98;;;9.23;;
40252;SDS011;25972;51.854;4.534;2023-02-21T12:25:10;31.40;;;13.48;;
40252;SDS011;25972;51.854;4.534;2023-02-21T12:27:57;18.27;;;7.63;;
40252;SDS011;25972;51.854;4.534;2023-02-21T12:30:45;20.30;;;9.52;;
40252;SDS011;25972;51.854;4.534;2023-02-21T12:44:22;11.38;;;3.95;;
40252;SDS011;25972;51.854;4.534;2023-02-21T12:47:03;15.15;;;5.63;;
40252;SDS011;25972;51.854;4.534;2023-02-21T12:49:44;6.85;;;2.85;;
40252;SDS011;25972;51.854;4.534;2023-02-21T12:52:53;17.03;;;6.77;;
40252;SDS011;25972;51.854;4.534;2023-02-21T12:55:50;17.08;;;6.38;;
40252;SDS011;25972;51.854;4.534;2023-02-21T12:58:33;11.18;;;4.47;;
40252;SDS011;25972;51.854;4.534;2023-02-21T13:07:41;6.18;;;2.65;;
40252;SDS011;25972;51.854;4.534;2023-02-21T13:10:06;12.30;;;5.40;;
40252;SDS011;25972;51.854;4.534;2023-02-21T13:15:23;13.80;;;5.60;;
40252;SDS011;25972;51.854;4.534;2023-02-21T13:18:00;11.05;;;3.60;;
40252;SDS011;25972;51.854;4.534;2023-02-21T13:20:43;15.02;;;5.88;;
40252;SDS011;25972;51.854;4.534;2023-02-21T13:29:03;16.35;;;6.03;;
40252;SDS011;25972;51.854;4.534;2023-02-21T13:31:59;11.73;;;3.88;;
40252;SDS011;25972;51.854;4.534;2023-02-21T13:34:33;14.38;;;5.60;;
40252;SDS011;25972;51.854;4.534;2023-02-21T13:37:05;17.10;;;6.68;;
40252;SDS011;25972;51.854;4.534;2023-02-21T13:39:38;18.08;;;7.50;;
40252;SDS011;25972;51.854;4.534;2023-02-21T13:42:15;16.95;;;6.63;;
40252;SDS011;25972;51.854;4.534;2023-02-21T13:44:49;20.10;;;7.07;;
40252;SDS011;25972;51.854;4.534;2023-02-21T13:55:37;17.70;;;6.35;;
40252;SDS011;25972;51.854;4.534;2023-02-21T14:03:04;23.33;;;10.18;;
40252;SDS011;25972;51.854;4.534;2023-02-21T14:13:32;36.28;;;15.73;;
40252;SDS011;25972;51.854;4.534;2023-02-21T14:18:59;29.20;;;12.35;;
40252;SDS011;25972;51.854;4.534;2023-02-21T14:21:43;27.95;;;11.60;;
40252;SDS011;25972;51.854;4.534;2023-02-21T14:42:42;23.77;;;8.05;;
40252;SDS011;25972;51.854;4.534;2023-02-21T14:45:22;24.88;;;8.77;;
40252;SDS011;25972;51.854;4.534;2023-02-21T14:50:18;17.65;;;7.40;;
40252;SDS011;25972;51.854;4.534;2023-02-21T14:58:49;30.02;;;10.35;;
40252;SDS011;25972;51.854;4.534;2023-02-21T15:01:26;35.90;;;12.35;;
40252;SDS011;25972;51.854;4.534;2023-02-21T15:04:14;34.50;;;11.70;;
40252;SDS011;25972;51.854;4.534;2023-02-21T15:07:02;36.13;;;14.13;;
40252;SDS011;25972;51.854;4.534;2023-02-21T15:09:38;36.25;;;13.02;;
40252;SDS011;25972;51.854;4.534;2023-02-21T15:12:06;33.50;;;12.73;;
40252;SDS011;25972;51.854;4.534;2023-02-21T15:14:37;35.63;;;13.77;;
40252;SDS011;25972;51.854;4.534;2023-02-21T15:17:10;35.45;;;11.88;;
40252;SDS011;25972;51.854;4.534;2023-02-21T15:19:47;31.58;;;11.75;;
40252;SDS011;25972;51.854;4.534;2023-02-21T15:22:26;37.53;;;12.25;;
40252;SDS011;25972;51.854;4.534;2023-02-21T15:25:12;36.83;;;12.40;;
40252;SDS011;25972;51.854;4.534;2023-02-21T15:30:14;28.38;;;9.13;;
40252;SDS011;25972;51.854;4.534;2023-02-21T15:32:42;38.25;;;13.98;;
40252;SDS011;25972;51.854;4.534;2023-02-21T15:35:12;45.03;;;14.57;;
40252;SDS011;25972;51.854;4.534;2023-02-21T15:37:45;40.30;;;12.30;;
40252;SDS011;25972;51.854;4.534;2023-02-21T15:40:12;28.77;;;9.15;;
40252;SDS011;25972;51.854;4.534;2023-02-21T15:42:41;45.00;;;14.93;;
40252;SDS011;25972;51.854;4.534;2023-02-21T15:45:18;47.67;;;16.83;;
40252;SDS011;25972;51.854;4.534;2023-02-21T15:53:19;51.30;;;16.45;;
40252;SDS011;25972;51.854;4.534;2023-02-21T15:55:49;78.85;;;23.83;;
40252;SDS011;25972;51.854;4.534;2023-02-21T16:01:04;176.50;;;47.85;;
40252;SDS011;25972;51.854;4.534;2023-02-21T16:03:35;76.55;;;26.58;;
40252;SDS011;25972;51.854;4.534;2023-02-21T16:08:38;42.22;;;16.27;;
40252;SDS011;25972;51.854;4.534;2023-02-21T16:17:04;39.35;;;12.27;;
40252;SDS011;25972;51.854;4.534;2023-02-21T16:19:30;28.17;;;9.73;;
40252;SDS011;25972;51.854;4.534;2023-02-21T16:22:20;29.83;;;10.98;;
40252;SDS011;25972;51.854;4.534;2023-02-21T16:25:03;33.63;;;11.77;;
40252;SDS011;25972;51.854;4.534;2023-02-21T16:27:53;35.65;;;12.05;;
40252;SDS011;25972;51.854;4.534;2023-02-21T16:30:27;33.30;;;11.88;;
40252;SDS011;25972;51.854;4.534;2023-02-21T16:32:58;44.70;;;15.30;;
40252;SDS011;25972;51.854;4.534;2023-02-21T16:35:26;41.72;;;15.23;;
40252;SDS011;25972;51.854;4.534;2023-02-21T16:37:53;30.80;;;12.35;;
40252;SDS011;25972;51.854;4.534;2023-02-21T16:40:22;48.42;;;20.27;;
40252;SDS011;25972;51.854;4.534;2023-02-21T16:42:53;42.50;;;18.05;;
40252;SDS011;25972;51.854;4.534;2023-02-21T16:45:20;60.67;;;23.02;;
40252;SDS011;25972;51.854;4.534;2023-02-21T16:47:47;39.92;;;15.93;;
40252;SDS011;25972;51.854;4.534;2023-02-21T16:50:22;46.15;;;18.83;;
40252;SDS011;25972;51.854;4.534;2023-02-21T16:53:00;33.90;;;13.25;;
40252;SDS011;25972;51.854;4.534;2023-02-21T16:55:27;33.70;;;12.45;;
40252;SDS011;25972;51.854;4.534;2023-02-21T16:57:58;35.53;;;12.52;;
40252;SDS011;25972;51.854;4.534;2023-02-21T17:00:26;24.25;;;8.63;;
40252;SDS011;25972;51.854;4.534;2023-02-21T17:02:52;29.50;;;11.07;;
40252;SDS011;25972;51.854;4.534;2023-02-21T17:05:19;14.77;;;4.32;;
40252;SDS011;25972;51.854;4.534;2023-02-21T17:07:46;28.10;;;10.50;;
40252;SDS011;25972;51.854;4.534;2023-02-21T17:10:17;27.25;;;10.23;;
40252;SDS011;25972;51.854;4.534;2023-02-21T17:12:44;27.98;;;9.23;;
40252;SDS011;25972;51.854;4.534;2023-02-21T17:15:10;29.45;;;10.10;;
40252;SDS011;25972;51.854;4.534;2023-02-21T17:17:37;30.25;;;10.48;;
40252;SDS011;25972;51.854;4.534;2023-02-21T17:20:03;31.50;;;11.27;;
40252;SDS011;25972;51.854;4.534;2023-02-21T17:22:31;26.13;;;9.88;;
40252;SDS011;25972;51.854;4.534;2023-02-21T17:24:57;30.73;;;10.75;;
40252;SDS011;25972;51.854;4.534;2023-02-21T17:27:23;30.63;;;10.00;;
40252;SDS011;25972;51.854;4.534;2023-02-21T17:29:49;32.00;;;10.68;;
40252;SDS011;25972;51.854;4.534;2023-02-21T17:32:15;26.90;;;10.20;;
40252;SDS011;25972;51.854;4.534;2023-02-21T17:34:41;26.83;;;10.82;;
40252;SDS011;25972;51.854;4.534;2023-02-21T17:37:08;26.17;;;9.07;;
40252;SDS011;25972;51.854;4.534;2023-02-21T17:39:34;30.90;;;9.70;;
40252;SDS011;25972;51.854;4.534;2023-02-21T17:42:00;29.20;;;10.15;;
40252;SDS011;25972;51.854;4.534;2023-02-21T17:44:26;30.95;;;9.30;;
40252;SDS011;25972;51.854;4.534;2023-02-21T17:46:54;26.48;;;10.05;;
40252;SDS011;25972;51.854;4.534;2023-02-21T17:49:21;25.08;;;8.25;;
40252;SDS011;25972;51.854;4.534;2023-02-21T17:51:51;29.60;;;10.98;;
40252;SDS011;25972;51.854;4.534;2023-02-21T17:54:19;31.05;;;11.93;;
40252;SDS011;25972;51.854;4.534;2023-02-21T17:56:48;26.73;;;9.65;;
40252;SDS011;25972;51.854;4.534;2023-02-21T17:59:16;24.60;;;10.15;;
40252;SDS011;25972;51.854;4.534;2023-02-21T18:01:43;30.13;;;11.70;;
40252;SDS011;25972;51.854;4.534;2023-02-21T18:04:09;30.42;;;12.63;;
40252;SDS011;25972;51.854;4.534;2023-02-21T18:06:38;25.92;;;10.07;;
40252;SDS011;25972;51.854;4.534;2023-02-21T18:09:05;27.85;;;11.05;;
40252;SDS011;25972;51.854;4.534;2023-02-21T18:11:32;28.38;;;10.75;;